createdAt,value
2019-03-24T00:00:42.855Z,99.99
2019-03-24T00:01:42.781Z,99.99
2019-03-24T00:02:42.695Z,99.99
2019-03-24T00:03:42.605Z,99.99
2019-03-24T00:04:42.532Z,99.99
2019-03-24T00:05:42.445Z,99.99
2019-03-24T00:06:42.356Z,99.99
2019-03-24T00:07:42.282Z,99.99
2019-03-24T00:08:42.195Z,99.99
2019-03-24T00:09:42.106Z,99.99
2019-03-24T00:10:42.041Z,99.99
2019-03-24T00:11:41.945Z,99.99
2019-03-24T00:12:41.857Z,99.99
2019-03-24T00:13:41.797Z,99.99
2019-03-24T00:14:41.696Z,99.99
2019-03-24T00:15:41.619Z,99.99
2019-03-24T00:16:41.533Z,99.99
2019-03-24T00:17:41.446Z,99.99
2019-03-24T00:18:41.360Z,99.99
2019-03-24T00:19:41.286Z,99.99
2019-03-24T00:20:41.202Z,99.99
2019-03-24T00:21:41.107Z,99.99
2019-03-24T00:22:41.034Z,99.99
2019-03-24T00:23:40.946Z,99.99
2019-03-24T00:24:40.858Z,99.99
2019-03-24T00:25:40.783Z,99.99
2019-03-24T00:26:40.697Z,99.99
2019-03-24T00:27:40.621Z,99.99
2019-03-24T00:28:40.536Z,99.99
2019-03-24T00:29:40.447Z,99.99
2019-03-24T00:30:40.373Z,99.99
2019-03-24T00:31:40.285Z,99.99
2019-03-24T00:32:40.197Z,99.99
2019-03-24T00:33:40.121Z,99.99
2019-03-24T00:34:40.022Z,99.99
2019-03-24T00:35:39.947Z,99.99
2019-03-24T00:36:39.860Z,99.99
2019-03-24T00:37:39.774Z,99.99
2019-03-24T00:38:39.699Z,99.99
2019-03-24T00:39:39.610Z,99.99
2019-03-24T00:40:39.525Z,99.99
2019-03-24T00:41:39.449Z,99.99
2019-03-24T00:42:39.360Z,99.99
2019-03-24T00:43:39.273Z,99.99
2019-03-24T00:44:39.199Z,99.99
2019-03-24T00:45:39.111Z,99.99
2019-03-24T00:46:39.023Z,99.99
2019-03-24T00:47:38.937Z,99.99
2019-03-24T00:48:38.873Z,99.99
2019-03-24T00:49:38.778Z,99.99
2019-03-24T00:50:38.686Z,99.99
2019-03-24T00:51:38.611Z,99.99
2019-03-24T00:52:38.526Z,99.99
2019-03-24T00:53:38.437Z,99.99
2019-03-24T00:54:38.364Z,99.99
2019-03-24T00:55:38.274Z,99.99
2019-03-24T00:56:38.188Z,99.99
2019-03-24T00:57:38.113Z,99.99
2019-03-24T00:58:38.025Z,99.99
2019-03-24T00:59:37.937Z,99.99
2019-03-24T01:00:37.862Z,99.99
2019-03-24T01:01:37.775Z,99.99
2019-03-24T01:02:37.701Z,99.99
2019-03-24T01:03:37.603Z,99.99
2019-03-24T01:04:37.526Z,99.99
2019-03-24T01:05:37.438Z,99.99
2019-03-24T01:06:37.366Z,99.99
2019-03-24T01:07:37.276Z,99.99
2019-03-24T01:08:37.202Z,99.99
2019-03-24T01:09:37.103Z,99.99
2019-03-24T01:10:37.020Z,99.99
2019-03-24T01:11:36.939Z,99.99
2019-03-24T01:12:36.851Z,99.99
2019-03-24T01:13:36.764Z,99.99
2019-03-24T01:14:36.705Z,99.99
2019-03-24T01:15:47.122Z,99.99
2019-03-24T01:16:36.514Z,99.99
2019-03-24T01:17:36.440Z,99.99
2019-03-24T01:18:36.352Z,99.99
2019-03-24T01:19:36.264Z,99.99
2019-03-24T01:20:36.202Z,99.99
2019-03-24T01:21:36.108Z,99.99
2019-03-24T01:22:36.014Z,99.99
2019-03-24T01:23:35.939Z,99.99
2019-03-24T01:24:35.853Z,99.99
2019-03-24T01:25:35.764Z,99.99
2019-03-24T01:26:35.679Z,99.99
2019-03-24T01:27:35.604Z,99.99
2019-03-24T01:28:35.516Z,99.99
2019-03-24T01:29:35.429Z,99.99
2019-03-24T01:30:35.354Z,99.99
2019-03-24T01:31:35.267Z,99.99
2019-03-24T01:32:35.183Z,99.99
2019-03-24T01:33:35.103Z,99.99
2019-03-24T01:34:35.016Z,99.99
2019-03-24T01:35:34.929Z,99.99
2019-03-24T01:36:34.854Z,99.99
2019-03-24T01:37:34.766Z,99.99
2019-03-24T01:38:34.682Z,99.99
2019-03-24T01:39:34.594Z,99.99
2019-03-24T01:40:34.520Z,99.99
2019-03-24T01:41:34.430Z,99.99
2019-03-24T01:42:34.342Z,99.99
2019-03-24T01:43:34.267Z,99.99
2019-03-24T01:44:34.182Z,99.99
2019-03-24T01:45:34.095Z,99.99
2019-03-24T01:46:34.016Z,99.99
2019-03-24T01:47:33.930Z,99.99
2019-03-24T01:48:33.842Z,99.99
2019-03-24T01:49:33.755Z,99.99
2019-03-24T01:50:33.686Z,99.99
2019-03-24T01:51:33.593Z,99.99
2019-03-24T01:52:33.507Z,99.99
2019-03-24T01:53:33.430Z,99.99
2019-03-24T01:54:33.344Z,99.99
2019-03-24T01:55:33.257Z,99.99
2019-03-24T01:56:33.181Z,99.99
2019-03-24T01:57:33.093Z,99.99
2019-03-24T01:58:33.006Z,99.99
2019-03-24T01:59:32.921Z,99.99
2019-03-24T02:00:32.843Z,99.99
2019-03-24T02:01:32.757Z,99.99
2019-03-24T02:02:32.668Z,99.99
2019-03-24T02:03:32.594Z,99.99
2019-03-24T02:04:32.506Z,99.99
2019-03-24T02:05:32.421Z,99.99
2019-03-24T02:06:32.332Z,99.99
2019-03-24T02:07:32.258Z,99.99
2019-03-24T02:08:32.171Z,99.99
2019-03-24T02:09:32.083Z,99.99
2019-03-24T02:10:32.009Z,99.99
2019-03-24T02:11:31.932Z,99.99
2019-03-24T02:12:31.833Z,99.99
2019-03-24T02:13:31.746Z,99.99
2019-03-24T02:14:31.671Z,99.99
2019-03-24T02:15:31.584Z,99.99
2019-03-24T02:16:31.495Z,99.99
2019-03-24T02:17:31.421Z,99.99
2019-03-24T02:18:31.333Z,99.99
2019-03-24T02:19:31.245Z,99.99
2019-03-24T02:20:31.159Z,99.99
2019-03-24T02:21:31.086Z,99.99
2019-03-24T02:22:30.996Z,99.99
2019-03-24T02:23:30.911Z,99.99
2019-03-24T02:24:30.823Z,99.99
2019-03-24T02:25:30.761Z,99.99
2019-03-24T02:26:30.660Z,99.99
2019-03-24T02:27:30.571Z,99.99
2019-03-24T02:28:30.496Z,99.99
2019-03-24T02:29:30.410Z,99.99
2019-03-24T02:30:30.335Z,99.99
2019-03-24T02:31:30.249Z,99.99
2019-03-24T02:32:30.161Z,99.99
2019-03-24T02:33:30.073Z,99.99
2019-03-24T02:34:29.989Z,99.99
2019-03-24T02:35:29.901Z,99.99
2019-03-24T02:36:29.827Z,99.99
2019-03-24T02:37:29.735Z,99.99
2019-03-24T02:38:29.648Z,99.99
2019-03-24T02:39:29.582Z,99.99
2019-03-24T02:40:29.487Z,99.99
2019-03-24T02:41:29.412Z,99.99
2019-03-24T02:42:29.321Z,99.99
2019-03-24T02:43:29.237Z,99.99
2019-03-24T02:44:29.151Z,99.99
2019-03-24T02:45:29.061Z,99.99
2019-03-24T02:46:28.975Z,99.99
2019-03-24T02:47:28.899Z,99.99
2019-03-24T02:48:28.812Z,99.99
2019-03-24T02:49:28.724Z,99.99
2019-03-24T02:50:28.638Z,99.99
2019-03-24T02:51:28.565Z,99.99
2019-03-24T02:52:28.476Z,99.99
2019-03-24T02:53:28.393Z,99.99
2019-03-24T02:54:28.303Z,99.99
2019-03-24T02:55:28.237Z,99.99
2019-03-24T02:56:28.150Z,99.99
2019-03-24T02:57:28.050Z,99.99
2019-03-24T02:58:27.964Z,99.99
2019-03-24T02:59:27.887Z,99.99
2019-03-24T03:00:27.800Z,99.99
2019-03-24T03:01:27.715Z,99.99
2019-03-24T03:02:27.629Z,99.99
2019-03-24T03:03:27.556Z,99.99
2019-03-24T03:04:27.463Z,99.99
2019-03-24T03:05:27.383Z,99.99
2019-03-24T03:06:27.302Z,99.99
2019-03-24T03:07:27.228Z,99.99
2019-03-24T03:08:27.132Z,99.99
2019-03-24T03:09:27.044Z,99.99
2019-03-24T03:10:26.953Z,99.99
2019-03-24T03:11:26.879Z,99.99
2019-03-24T03:12:26.789Z,99.99
2019-03-24T03:13:26.701Z,99.99
2019-03-24T03:14:26.624Z,99.99
2019-03-24T03:15:26.539Z,99.99
2019-03-24T03:16:37.804Z,99.99
2019-03-24T03:17:26.365Z,99.99
2019-03-24T03:18:26.279Z,99.99
2019-03-24T03:19:26.193Z,99.99
2019-03-24T03:20:26.123Z,99.99
2019-03-24T03:21:26.034Z,99.99
2019-03-24T03:22:25.942Z,99.99
2019-03-24T03:23:25.854Z,99.99
2019-03-24T03:24:25.786Z,99.99
2019-03-24T03:25:25.698Z,99.99
2019-03-24T03:26:25.604Z,99.99
2019-03-24T03:27:25.517Z,99.99
2019-03-24T03:28:25.441Z,99.99
2019-03-24T03:29:25.354Z,99.99
2019-03-24T03:30:25.269Z,99.99
2019-03-24T03:31:25.182Z,99.99
2019-03-24T03:32:25.093Z,99.99
2019-03-24T03:33:25.019Z,99.99
2019-03-24T03:34:24.930Z,99.99
2019-03-24T03:35:24.876Z,99.99
2019-03-24T03:36:24.757Z,99.99
2019-03-24T03:37:24.690Z,99.99
2019-03-24T03:38:24.601Z,99.99
2019-03-24T03:39:24.505Z,99.99
2019-03-24T03:40:24.428Z,99.99
2019-03-24T03:41:24.331Z,99.99
2019-03-24T03:42:24.270Z,99.99
2019-03-24T03:43:24.169Z,99.99
2019-03-24T03:44:24.086Z,99.99
2019-03-24T03:45:24.002Z,99.99
2019-03-24T03:46:23.908Z,99.99
2019-03-24T03:47:23.842Z,99.99
2019-03-24T03:48:23.746Z,99.99
2019-03-24T03:49:23.661Z,99.99
2019-03-24T03:50:23.577Z,99.99
2019-03-24T03:51:23.504Z,99.99
2019-03-24T03:52:23.414Z,99.99
2019-03-24T03:53:23.321Z,99.99
2019-03-24T03:54:23.240Z,99.99
2019-03-24T03:55:23.145Z,99.99
2019-03-24T03:56:23.069Z,99.99
2019-03-24T03:57:22.984Z,99.99
2019-03-24T03:58:22.901Z,99.99
2019-03-24T03:59:22.808Z,99.99
2019-03-24T04:00:22.735Z,99.99
2019-03-24T04:01:22.645Z,99.99
2019-03-24T04:02:22.557Z,99.99
2019-03-24T04:03:22.470Z,99.99
2019-03-24T04:04:22.384Z,99.99
2019-03-24T04:05:22.308Z,99.99
2019-03-24T04:06:22.230Z,99.99
2019-03-24T04:07:22.134Z,99.99
2019-03-24T04:08:22.062Z,99.99
2019-03-24T04:09:21.965Z,99.99
2019-03-24T04:10:21.883Z,99.99
2019-03-24T04:11:21.796Z,99.99
2019-03-24T04:12:21.709Z,99.99
2019-03-24T04:13:21.630Z,99.99
2019-03-24T04:14:21.538Z,99.99
2019-03-24T04:15:21.459Z,99.99
2019-03-24T04:16:21.375Z,99.99
2019-03-24T04:17:21.285Z,99.99
2019-03-24T04:18:21.197Z,99.99
2019-03-24T04:19:21.109Z,99.99
2019-03-24T04:20:21.071Z,99.99
2019-03-24T04:21:20.950Z,99.99
2019-03-24T04:22:20.860Z,99.99
2019-03-24T04:23:20.778Z,99.99
2019-03-24T04:24:20.688Z,99.99
2019-03-24T04:25:20.610Z,99.99
2019-03-24T04:26:20.524Z,99.99
2019-03-24T04:27:20.435Z,99.99
2019-03-24T04:28:20.350Z,99.99
2019-03-24T04:29:20.261Z,99.99
2019-03-24T04:30:20.187Z,99.99
2019-03-24T04:31:20.100Z,99.99
2019-03-24T04:32:20.012Z,99.99
2019-03-24T04:33:19.926Z,99.99
2019-03-24T04:34:19.837Z,99.99
2019-03-24T04:35:19.779Z,99.99
2019-03-24T04:36:19.675Z,99.99
2019-03-24T04:37:19.586Z,99.99
2019-03-24T04:38:19.499Z,99.99
2019-03-24T04:39:19.412Z,99.99
2019-03-24T04:40:19.337Z,99.99
2019-03-24T04:41:19.250Z,99.99
2019-03-24T04:42:19.175Z,99.99
2019-03-24T04:43:19.082Z,99.99
2019-03-24T04:44:18.986Z,99.99
2019-03-24T04:45:18.900Z,99.99
2019-03-24T04:46:18.825Z,99.99
2019-03-24T04:47:18.743Z,99.99
2019-03-24T04:48:18.649Z,99.99
2019-03-24T04:49:18.575Z,99.99
2019-03-24T04:50:18.478Z,99.99
2019-03-24T04:51:18.400Z,99.99
2019-03-24T04:52:18.312Z,99.99
2019-03-24T04:53:20.536Z,99.99
2019-03-24T04:54:18.139Z,99.99
2019-03-24T04:55:18.053Z,99.99
2019-03-24T04:56:17.976Z,99.99
2019-03-24T04:57:17.890Z,99.99
2019-03-24T04:58:17.803Z,99.99
2019-03-24T04:59:17.713Z,99.99
2019-03-24T05:00:17.628Z,99.99
2019-03-24T05:01:17.540Z,99.99
2019-03-24T05:02:17.473Z,99.99
2019-03-24T05:03:17.378Z,99.99
2019-03-24T05:04:17.289Z,99.99
2019-03-24T05:05:17.205Z,99.99
2019-03-24T05:06:17.127Z,99.99
2019-03-24T05:07:17.039Z,99.99
2019-03-24T05:08:16.961Z,99.99
2019-03-24T05:09:16.872Z,99.99
2019-03-24T05:10:16.777Z,99.99
2019-03-24T05:11:16.695Z,99.99
2019-03-24T05:12:16.614Z,99.99
2019-03-24T05:13:16.528Z,99.99
2019-03-24T05:14:16.440Z,99.99
2019-03-24T05:15:16.356Z,99.99
2019-03-24T05:16:16.266Z,99.99
2019-03-24T05:17:26.339Z,99.99
2019-03-24T05:18:16.104Z,99.99
2019-03-24T05:19:16.016Z,99.99
2019-03-24T05:20:15.929Z,99.99
2019-03-24T05:21:15.853Z,99.99
2019-03-24T05:22:15.765Z,99.99
2019-03-24T05:23:15.678Z,99.99
2019-03-24T05:24:15.591Z,99.99
2019-03-24T05:25:15.521Z,99.99
2019-03-24T05:26:15.418Z,99.99
2019-03-24T05:27:15.342Z,99.99
2019-03-24T05:28:15.255Z,99.99
2019-03-24T05:29:15.166Z,99.99
2019-03-24T05:30:15.082Z,99.99
2019-03-24T05:31:14.992Z,99.99
2019-03-24T05:32:14.917Z,99.99
2019-03-24T05:33:14.830Z,99.99
2019-03-24T05:34:14.742Z,99.99
2019-03-24T05:35:14.656Z,99.99
2019-03-24T05:36:14.570Z,99.99
2019-03-24T05:37:14.506Z,99.99
2019-03-24T05:38:14.406Z,99.99
2019-03-24T05:39:14.318Z,99.99
2019-03-24T05:40:14.238Z,99.99
2019-03-24T05:41:14.144Z,99.99
2019-03-24T05:42:14.069Z,99.99
2019-03-24T05:43:13.982Z,99.99
2019-03-24T05:44:13.893Z,99.99
2019-03-24T05:45:13.810Z,99.99
2019-03-24T05:46:13.720Z,99.99
2019-03-24T05:47:13.644Z,99.99
2019-03-24T05:48:13.556Z,99.99
2019-03-24T05:49:13.469Z,99.99
2019-03-24T05:50:13.382Z,99.99
2019-03-24T05:51:13.296Z,99.99
2019-03-24T05:52:13.225Z,99.99
2019-03-24T05:53:13.133Z,99.99
2019-03-24T05:54:13.045Z,99.99
2019-03-24T05:55:12.957Z,99.99
2019-03-24T05:56:12.885Z,99.99
2019-03-24T05:57:12.801Z,99.99
2019-03-24T05:58:12.709Z,99.99
2019-03-24T05:59:12.619Z,99.99
2019-03-24T06:00:12.545Z,99.99
2019-03-24T06:01:12.458Z,99.99
2019-03-24T06:02:12.370Z,99.99
2019-03-24T06:03:12.286Z,99.99
2019-03-24T06:04:12.196Z,99.99
2019-03-24T06:05:12.120Z,99.99
2019-03-24T06:06:12.035Z,99.99
2019-03-24T06:07:11.950Z,99.99
2019-03-24T06:08:11.859Z,99.99
2019-03-24T06:09:11.771Z,99.99
2019-03-24T06:10:11.696Z,99.99
2019-03-24T06:11:11.610Z,99.99
2019-03-24T06:12:11.521Z,99.99
2019-03-24T06:13:11.435Z,99.99
2019-03-24T06:14:11.359Z,99.99
2019-03-24T06:15:11.274Z,99.99
2019-03-24T06:16:11.185Z,99.99
2019-03-24T06:17:11.097Z,99.99
2019-03-24T06:18:11.011Z,99.99
2019-03-24T06:19:10.936Z,99.99
2019-03-24T06:20:10.848Z,99.99
2019-03-24T06:21:10.761Z,99.99
2019-03-24T06:22:10.673Z,99.99
2019-03-24T06:23:10.598Z,99.99
2019-03-24T06:24:10.514Z,99.99
2019-03-24T06:25:10.437Z,99.99
2019-03-24T06:26:10.338Z,99.99
2019-03-24T06:27:10.261Z,99.99
2019-03-24T06:28:10.173Z,99.99
2019-03-24T06:29:10.087Z,99.99
2019-03-24T06:30:10.011Z,99.99
2019-03-24T06:31:09.928Z,99.99
2019-03-24T06:32:09.842Z,99.99
2019-03-24T06:33:09.749Z,99.99
2019-03-24T06:34:09.663Z,99.99
2019-03-24T06:35:09.589Z,99.99
2019-03-24T06:36:09.499Z,99.99
2019-03-24T06:37:09.414Z,99.99
2019-03-24T06:38:09.325Z,99.84
2019-03-24T06:39:09.263Z,98.69
2019-03-24T06:40:09.163Z,97.27
2019-03-24T06:41:09.077Z,97.64
2019-03-24T06:42:09.007Z,98.03
2019-03-24T06:43:08.914Z,96.50
2019-03-24T06:44:08.838Z,95.94
2019-03-24T06:45:08.750Z,95.41
2019-03-24T06:46:08.664Z,95.12
2019-03-24T06:47:08.576Z,94.08
2019-03-24T06:48:08.501Z,93.60
2019-03-24T06:49:08.417Z,93.32
2019-03-24T06:50:08.326Z,91.70
2019-03-24T06:51:08.244Z,92.08
2019-03-24T06:52:08.164Z,92.65
2019-03-24T06:53:08.078Z,92.75
2019-03-24T06:54:08.001Z,92.70
2019-03-24T06:55:07.920Z,91.65
2019-03-24T06:56:07.843Z,91.65
2019-03-24T06:57:07.751Z,90.03
2019-03-24T06:58:07.669Z,89.84
2019-03-24T06:59:07.577Z,89.47
2019-03-24T07:00:07.502Z,89.75
2019-03-24T07:01:07.415Z,90.42
2019-03-24T07:02:07.328Z,89.56
2019-03-24T07:03:07.252Z,89.51
2019-03-24T07:04:07.166Z,88.65
2019-03-24T07:05:07.093Z,87.79
2019-03-24T07:06:07.003Z,87.51
2019-03-24T07:07:06.929Z,86.75
2019-03-24T07:08:06.841Z,87.07
2019-03-24T07:09:06.762Z,87.55
2019-03-24T07:10:06.691Z,86.94
2019-03-24T07:11:12.338Z,87.32
2019-03-24T07:12:06.518Z,87.32
2019-03-24T07:13:06.428Z,87.98
2019-03-24T07:14:06.361Z,88.08
2019-03-24T07:15:06.267Z,87.23
2019-03-24T07:16:06.179Z,87.79
2019-03-24T07:17:06.104Z,86.60
2019-03-24T07:18:08.673Z,86.46
2019-03-24T07:19:05.942Z,85.99
2019-03-24T07:20:05.854Z,85.22
2019-03-24T07:21:05.778Z,86.08
2019-03-24T07:22:07.283Z,86.65
2019-03-24T07:23:05.620Z,86.55
2019-03-24T07:24:05.530Z,86.80
2019-03-24T07:25:05.446Z,87.08
2019-03-24T07:26:05.368Z,87.56
2019-03-24T07:27:05.280Z,87.08
2019-03-24T07:28:05.217Z,87.75
2019-03-24T07:29:05.118Z,87.18
2019-03-24T07:30:05.043Z,87.08
2019-03-24T07:31:04.958Z,86.42
2019-03-24T07:32:04.941Z,86.51
2019-03-24T07:33:04.795Z,86.32
2019-03-24T07:34:04.705Z,86.75
2019-03-24T07:35:04.631Z,87.41
2019-03-24T07:36:04.544Z,87.03
2019-03-24T07:37:04.471Z,85.89
2019-03-24T07:38:04.392Z,86.12
2019-03-24T07:39:04.307Z,85.32
2019-03-24T07:40:04.220Z,85.27
2019-03-24T07:41:04.132Z,84.12
2019-03-24T07:42:05.538Z,83.59
2019-03-24T07:43:03.970Z,83.31
2019-03-24T07:44:03.902Z,82.35
2019-03-24T07:45:03.807Z,82.30
2019-03-24T07:46:03.731Z,81.82
2019-03-24T07:47:03.645Z,82.15
2019-03-24T07:48:03.570Z,80.28
2019-03-24T07:49:03.489Z,79.38
2019-03-24T07:50:03.399Z,78.23
2019-03-24T07:51:03.321Z,78.01
2019-03-24T07:52:03.234Z,78.14
2019-03-24T07:53:03.159Z,78.33
2019-03-24T07:54:03.072Z,79.04
2019-03-24T07:55:02.997Z,76.94
2019-03-24T07:56:02.909Z,76.50
2019-03-24T07:57:02.834Z,73.77
2019-03-24T07:58:02.760Z,71.99
2019-03-24T07:59:02.673Z,71.13
2019-03-24T08:00:02.585Z,69.82
2019-03-24T08:01:02.509Z,68.90
2019-03-24T08:02:02.434Z,67.56
2019-03-24T08:03:02.350Z,66.38
2019-03-24T08:04:02.285Z,66.63
2019-03-24T08:05:02.185Z,68.90
2019-03-24T08:06:02.110Z,69.76
2019-03-24T08:07:02.024Z,69.47
2019-03-24T08:08:01.950Z,69.02
2019-03-24T08:09:01.873Z,68.74
2019-03-24T08:10:01.785Z,68.96
2019-03-24T08:11:01.710Z,70.90
2019-03-24T08:12:01.649Z,71.28
2019-03-24T08:13:01.550Z,70.17
2019-03-24T08:14:01.478Z,68.20
2019-03-24T08:15:01.401Z,67.66
2019-03-24T08:16:01.311Z,66.22
2019-03-24T08:17:01.236Z,67.53
2019-03-24T08:18:01.160Z,66.76
2019-03-24T08:19:01.074Z,66.61
2019-03-24T08:20:01.005Z,66.64
2019-03-24T08:21:00.925Z,65.49
2019-03-24T08:22:00.850Z,65.30
2019-03-24T08:23:00.761Z,66.51
2019-03-24T08:24:00.687Z,65.90
2019-03-24T08:25:00.615Z,67.02
2019-03-24T08:26:00.526Z,67.69
2019-03-24T08:27:00.450Z,68.41
2019-03-24T08:28:00.377Z,70.04
2019-03-24T08:29:00.300Z,70.39
2019-03-24T08:30:00.322Z,71.27
2019-03-24T08:31:00.138Z,72.42
2019-03-24T08:32:00.062Z,74.04
2019-03-24T08:32:59.988Z,74.10
2019-03-24T08:33:59.901Z,74.73
2019-03-24T08:34:59.826Z,76.35
2019-03-24T08:35:59.752Z,76.44
2019-03-24T08:36:59.675Z,76.35
2019-03-24T08:37:59.588Z,76.64
2019-03-24T08:38:59.513Z,76.39
2019-03-24T08:39:59.438Z,77.06
2019-03-24T08:40:59.351Z,77.06
2019-03-24T08:41:59.276Z,76.96
2019-03-24T08:42:59.188Z,75.91
2019-03-24T08:43:59.114Z,75.24
2019-03-24T08:44:59.042Z,75.68
2019-03-24T08:45:58.953Z,77.06
2019-03-24T08:46:58.907Z,76.86
2019-03-24T08:47:58.790Z,76.86
2019-03-24T08:48:58.728Z,77.72
2019-03-24T08:49:58.639Z,76.77
2019-03-24T08:50:58.557Z,76.52
2019-03-24T08:51:58.478Z,76.14
2019-03-24T08:52:58.392Z,75.32
2019-03-24T08:53:58.315Z,74.37
2019-03-24T08:54:59.844Z,73.12
2019-03-24T08:55:58.161Z,72.26
2019-03-24T08:56:58.125Z,72.55
2019-03-24T08:57:57.991Z,71.88
2019-03-24T08:58:57.917Z,72.39
2019-03-24T08:59:57.855Z,72.11
2019-03-24T09:00:57.753Z,71.92
2019-03-24T09:01:57.679Z,70.81
2019-03-24T09:02:57.591Z,69.85
2019-03-24T09:03:57.520Z,68.70
2019-03-24T09:04:57.443Z,68.07
2019-03-24T09:05:57.356Z,66.96
2019-03-24T09:06:57.279Z,66.67
2019-03-24T09:07:57.206Z,65.52
2019-03-24T09:08:57.116Z,65.61
2019-03-24T09:09:57.043Z,65.45
2019-03-24T09:10:56.958Z,64.75
2019-03-24T09:11:56.879Z,66.35
2019-03-24T09:12:56.810Z,68.26
2019-03-24T09:13:56.717Z,67.36
2019-03-24T09:14:56.641Z,68.16
2019-03-24T09:15:56.567Z,69.02
2019-03-24T09:16:56.480Z,69.31
2019-03-24T09:17:56.406Z,69.02
2019-03-24T09:18:56.336Z,68.82
2019-03-24T09:19:56.243Z,68.86
2019-03-24T09:20:56.167Z,66.70
2019-03-24T09:21:56.105Z,67.55
2019-03-24T09:22:56.008Z,67.78
2019-03-24T09:23:55.944Z,66.79
2019-03-24T09:24:55.858Z,66.76
2019-03-24T09:25:55.768Z,66.00
2019-03-24T09:26:55.695Z,65.80
2019-03-24T09:27:55.619Z,66.00
2019-03-24T09:28:55.532Z,67.05
2019-03-24T09:29:55.463Z,67.24
2019-03-24T09:30:55.382Z,67.17
2019-03-24T09:31:55.294Z,69.23
2019-03-24T09:32:55.219Z,70.07
2019-03-24T09:33:55.147Z,68.70
2019-03-24T09:34:55.059Z,68.73
2019-03-24T09:35:54.982Z,68.48
2019-03-24T09:36:54.895Z,68.16
2019-03-24T09:37:54.832Z,67.68
2019-03-24T09:38:54.745Z,68.63
2019-03-24T09:39:54.658Z,68.60
2019-03-24T09:40:54.582Z,69.46
2019-03-24T09:41:54.510Z,69.31
2019-03-24T09:42:54.420Z,67.55
2019-03-24T09:43:54.345Z,66.50
2019-03-24T09:44:54.261Z,64.82
2019-03-24T09:45:56.129Z,63.42
2019-03-24T09:46:54.110Z,63.26
2019-03-24T09:47:54.021Z,61.85
2019-03-24T09:49:02.715Z,61.85
2019-03-24T09:49:53.884Z,63.48
2019-03-24T09:50:53.784Z,63.73
2019-03-24T09:51:53.714Z,63.45
2019-03-24T09:52:53.623Z,63.26
2019-03-24T09:53:53.546Z,63.99
2019-03-24T09:54:53.473Z,62.84
2019-03-24T09:55:53.384Z,62.74
2019-03-24T09:56:53.310Z,63.19
2019-03-24T09:57:53.234Z,63.67
2019-03-24T09:58:53.147Z,65.68
2019-03-24T09:59:53.072Z,65.01
2019-03-24T10:00:52.985Z,65.36
2019-03-24T10:01:52.911Z,66.22
2019-03-24T10:02:52.835Z,65.74
2019-03-24T10:03:52.748Z,66.76
2019-03-24T10:04:54.805Z,65.77
2019-03-24T10:05:52.586Z,66.25
2019-03-24T10:06:52.512Z,66.69
2019-03-24T10:07:52.424Z,68.12
2019-03-24T10:08:52.347Z,68.12
2019-03-24T10:09:52.273Z,68.12
2019-03-24T10:10:52.186Z,68.79
2019-03-24T10:11:52.112Z,69.37
2019-03-24T10:12:52.023Z,68.98
2019-03-24T10:13:51.948Z,68.88
2019-03-24T10:14:51.873Z,68.41
2019-03-24T10:15:51.787Z,67.71
2019-03-24T10:16:51.711Z,68.12
2019-03-24T10:17:51.649Z,68.51
2019-03-24T10:18:51.537Z,67.74
2019-03-24T10:19:51.463Z,68.63
2019-03-24T10:20:51.375Z,68.63
2019-03-24T10:21:51.312Z,67.49
2019-03-24T10:22:51.225Z,67.21
2019-03-24T10:23:51.138Z,68.29
2019-03-24T10:24:51.070Z,67.91
2019-03-24T10:25:50.975Z,66.09
2019-03-24T10:26:50.913Z,64.50
2019-03-24T10:27:50.815Z,64.15
2019-03-24T10:28:50.738Z,63.99
2019-03-24T10:29:50.651Z,63.03
2019-03-24T10:30:50.576Z,63.13
2019-03-24T10:31:50.514Z,60.74
2019-03-24T10:32:50.414Z,60.23
2019-03-24T10:33:50.339Z,61.22
2019-03-24T10:34:50.250Z,62.94
2019-03-24T10:35:50.176Z,62.87
2019-03-24T10:36:50.089Z,62.90
2019-03-24T10:37:50.016Z,62.04
2019-03-24T10:38:49.939Z,60.58
2019-03-24T10:39:49.852Z,59.78
2019-03-24T10:40:49.776Z,59.05
2019-03-24T10:41:49.690Z,59.84
2019-03-24T10:42:49.614Z,61.28
2019-03-24T10:43:49.540Z,59.49
2019-03-24T10:44:49.451Z,58.12
2019-03-24T10:45:49.377Z,59.01
2019-03-24T10:46:49.292Z,59.20
2019-03-24T10:47:49.216Z,59.94
2019-03-24T10:48:49.142Z,59.66
2019-03-24T10:49:49.065Z,59.88
2019-03-24T10:50:48.982Z,59.01
2019-03-24T10:51:48.903Z,60.67
2019-03-24T10:52:48.817Z,60.55
2019-03-24T10:53:48.742Z,60.67
2019-03-24T10:54:48.666Z,62.01
2019-03-24T10:55:48.579Z,60.61
2019-03-24T10:56:48.503Z,59.27
2019-03-24T10:57:48.417Z,58.88
2019-03-24T10:58:48.342Z,58.59
2019-03-24T10:59:48.270Z,58.22
2019-03-24T11:00:48.182Z,58.18
2019-03-24T11:01:48.105Z,58.50
2019-03-24T11:02:48.034Z,59.91
2019-03-24T11:03:47.944Z,59.84
2019-03-24T11:04:47.867Z,58.37
2019-03-24T11:05:47.792Z,57.58
2019-03-24T11:06:47.705Z,57.39
2019-03-24T11:07:47.630Z,57.36
2019-03-24T11:08:47.555Z,59.75
2019-03-24T11:09:47.468Z,61.28
2019-03-24T11:10:47.396Z,61.85
2019-03-24T11:11:47.318Z,63.10
2019-03-24T11:12:47.230Z,61.28
2019-03-24T11:13:47.157Z,60.42
2019-03-24T11:14:47.085Z,61.12
2019-03-24T11:15:46.994Z,59.65
2019-03-24T11:16:46.923Z,58.22
2019-03-24T11:17:46.844Z,57.64
2019-03-24T11:18:46.756Z,55.63
2019-03-24T11:19:46.694Z,56.20
2019-03-24T11:20:46.606Z,56.87
2019-03-24T11:21:46.519Z,55.44
2019-03-24T11:22:46.446Z,54.55
2019-03-24T11:23:46.370Z,55.24
2019-03-24T11:24:46.283Z,54.48
2019-03-24T11:25:46.206Z,56.68
2019-03-24T11:26:46.135Z,56.81
2019-03-24T11:27:46.059Z,56.20
2019-03-24T11:28:45.974Z,55.15
2019-03-24T11:29:45.896Z,55.51
2019-03-24T11:30:45.821Z,57.70
2019-03-24T11:31:45.746Z,58.15
2019-03-24T11:32:45.657Z,58.73
2019-03-24T11:33:45.584Z,57.48
2019-03-24T11:34:45.509Z,57.48
2019-03-24T11:35:45.446Z,56.91
2019-03-24T11:36:45.346Z,56.62
2019-03-24T11:37:45.276Z,57.42
2019-03-24T11:38:45.196Z,56.59
2019-03-24T11:39:45.109Z,54.28
2019-03-24T11:40:45.034Z,54.27
2019-03-24T11:41:44.958Z,53.12
2019-03-24T11:42:44.886Z,51.65
2019-03-24T11:43:44.799Z,52.26
2019-03-24T11:44:44.721Z,51.56
2019-03-24T11:45:44.646Z,51.63
2019-03-24T11:46:44.572Z,52.20
2019-03-24T11:47:44.486Z,53.16
2019-03-24T11:48:44.409Z,53.07
2019-03-24T11:49:46.569Z,52.01
2019-03-24T11:50:44.259Z,53.74
2019-03-24T11:51:44.184Z,52.87
2019-03-24T11:52:44.099Z,52.87
2019-03-24T11:53:44.024Z,52.97
2019-03-24T11:54:43.948Z,53.19
2019-03-24T11:55:43.877Z,51.54
2019-03-24T11:56:43.799Z,50.65
2019-03-24T11:57:43.711Z,50.70
2019-03-24T11:58:43.666Z,51.59
2019-03-24T11:59:43.561Z,51.49
2019-03-24T12:00:43.485Z,51.87
2019-03-24T12:01:43.411Z,50.34
2019-03-24T12:02:43.324Z,50.05
2019-03-24T12:03:43.254Z,49.36
2019-03-24T12:04:43.174Z,51.18
2019-03-24T12:05:43.100Z,52.16
2019-03-24T12:06:43.026Z,50.73
2019-03-24T12:07:42.956Z,50.46
2019-03-24T12:08:42.862Z,50.26
2019-03-24T12:09:42.788Z,50.20
2019-03-24T12:10:42.713Z,52.01
2019-03-24T12:11:42.638Z,52.47
2019-03-24T12:12:42.595Z,52.95
2019-03-24T12:13:42.488Z,53.04
2019-03-24T12:14:42.401Z,52.95
2019-03-24T12:15:42.328Z,53.04
2019-03-24T12:16:42.251Z,51.46
2019-03-24T12:17:42.178Z,50.00
2019-03-24T12:18:42.100Z,49.43
2019-03-24T12:19:42.025Z,49.50
2019-03-24T12:20:41.938Z,48.90
2019-03-24T12:21:41.876Z,50.02
2019-03-24T12:22:41.788Z,51.17
2019-03-24T12:23:41.715Z,51.29
2019-03-24T12:24:41.641Z,49.69
2019-03-24T12:25:41.552Z,50.34
2019-03-24T12:26:41.476Z,50.20
2019-03-24T12:27:41.402Z,50.38
2019-03-24T12:28:41.328Z,49.36
2019-03-24T12:29:41.252Z,48.44
2019-03-24T12:30:41.165Z,47.89
2019-03-24T12:31:41.089Z,44.75
2019-03-24T12:32:41.017Z,43.81
2019-03-24T12:33:40.940Z,42.54
2019-03-24T12:34:40.864Z,42.50
2019-03-24T12:35:40.846Z,42.44
2019-03-24T12:36:40.715Z,41.46
2019-03-24T12:37:40.628Z,41.46
2019-03-24T12:38:40.559Z,41.54
2019-03-24T12:39:40.479Z,41.90
2019-03-24T12:40:40.403Z,42.86
2019-03-24T12:41:40.329Z,43.91
2019-03-24T12:42:40.255Z,43.70
2019-03-24T12:43:40.179Z,43.77
2019-03-24T12:44:40.112Z,44.57
2019-03-24T12:45:40.029Z,46.66
2019-03-24T12:46:39.942Z,48.18
2019-03-24T12:47:39.866Z,48.95
2019-03-24T12:48:39.792Z,48.18
2019-03-24T12:49:39.716Z,47.89
2019-03-24T12:50:39.641Z,47.32
2019-03-24T12:51:39.568Z,47.03